createdAt,value
2023-04-09T00:01:13.851Z,36.40
2023-04-09T00:03:41.114Z,38.05
2023-04-09T00:06:08.664Z,38.47
2023-04-09T00:08:35.905Z,41.15
2023-04-09T00:11:03.622Z,36.88
2023-04-09T00:13:39.307Z,37.83
2023-04-09T00:16:08.473Z,39.50
2023-04-09T00:18:36.175Z,32.35
2023-04-09T00:21:03.621Z,38.83
2023-04-09T00:23:31.024Z,38.72
2023-04-09T00:25:58.427Z,35.75
2023-04-09T00:28:25.569Z,38.40
2023-04-09T00:30:53.044Z,38.95
2023-04-09T00:33:20.269Z,41.28
2023-04-09T00:35:47.664Z,37.28
2023-04-09T00:38:14.863Z,41.28
2023-04-09T00:40:42.422Z,43.47
2023-04-09T00:43:09.715Z,44.35
2023-04-09T00:45:38.030Z,43.38
2023-04-09T00:48:05.587Z,44.58
2023-04-09T00:50:32.956Z,42.63
2023-04-09T00:53:01.202Z,43.25
2023-04-09T00:55:29.805Z,44.97
2023-04-09T00:57:56.945Z,40.20
2023-04-09T01:00:24.554Z,40.83
2023-04-09T01:02:53.212Z,37.75
2023-04-09T01:05:20.879Z,38.58
2023-04-09T01:08:18.011Z,38.47
2023-04-09T01:11:19.328Z,36.88
2023-04-09T01:14:02.256Z,36.67
2023-04-09T01:20:11.077Z,35.75
2023-04-09T01:23:25.815Z,34.38
2023-04-09T01:26:24.994Z,36.13
2023-04-09T01:28:57.516Z,36.00
2023-04-09T01:31:32.209Z,37.85
2023-04-09T01:34:02.107Z,35.42
2023-04-09T01:36:32.291Z,36.15
2023-04-09T01:39:03.628Z,35.75
2023-04-09T01:41:34.157Z,31.55
2023-04-09T01:44:05.717Z,37.65
2023-04-09T01:46:34.987Z,33.03
2023-04-09T01:49:03.168Z,32.35
2023-04-09T01:51:31.638Z,34.10
2023-04-09T01:54:03.300Z,34.83
2023-04-09T01:56:44.668Z,34.83
2023-04-09T01:59:13.588Z,32.07
2023-04-09T02:01:53.318Z,34.85
2023-04-09T02:04:49.210Z,32.58
2023-04-09T02:07:40.548Z,30.90
2023-04-09T02:10:11.960Z,32.20
2023-04-09T02:12:45.574Z,33.53
2023-04-09T02:15:14.349Z,34.25
2023-04-09T02:17:41.513Z,36.13
2023-04-09T02:20:09.694Z,35.35
2023-04-09T02:22:36.812Z,36.40
2023-04-09T02:25:04.815Z,39.10
2023-04-09T02:27:31.855Z,35.38
2023-04-09T02:29:59.228Z,36.42
2023-04-09T02:32:26.543Z,42.17
2023-04-09T02:34:54.000Z,41.65
2023-04-09T02:37:21.283Z,41.13
2023-04-09T02:39:48.644Z,41.70
2023-04-09T02:42:15.751Z,39.17
2023-04-09T02:44:44.273Z,39.75
2023-04-09T02:47:13.067Z,40.08
2023-04-09T02:49:40.505Z,36.63
2023-04-09T02:52:09.545Z,38.67
2023-04-09T02:54:36.906Z,42.35
2023-04-09T02:57:04.067Z,38.60
2023-04-09T02:59:32.975Z,37.78
2023-04-09T03:02:00.341Z,37.80
2023-04-09T03:04:27.822Z,36.55
2023-04-09T03:06:55.016Z,35.47
2023-04-09T03:09:22.358Z,39.85
2023-04-09T03:11:49.401Z,35.10
2023-04-09T03:14:16.872Z,37.78
2023-04-09T03:16:44.866Z,36.17
2023-04-09T03:19:12.300Z,35.28
2023-04-09T03:21:39.417Z,37.33
2023-04-09T03:24:07.236Z,35.72
2023-04-09T03:26:37.971Z,34.53
2023-04-09T03:31:34.489Z,35.75
2023-04-09T03:34:03.141Z,31.40
2023-04-09T03:36:33.015Z,35.35
2023-04-09T03:39:05.042Z,32.35
2023-04-09T03:41:38.351Z,32.15
2023-04-09T03:44:12.300Z,30.50
2023-04-09T03:46:57.022Z,31.80
2023-04-09T03:49:25.860Z,30.63
2023-04-09T03:51:56.583Z,31.73
2023-04-09T03:54:30.486Z,29.15
2023-04-09T03:56:59.090Z,35.85
2023-04-09T03:59:26.474Z,36.17
2023-04-09T04:01:53.797Z,30.17
2023-04-09T04:04:23.571Z,34.65
2023-04-09T04:06:55.443Z,30.20
2023-04-09T04:09:29.940Z,28.90
2023-04-09T04:12:04.999Z,30.70
2023-04-09T04:14:47.763Z,32.22
2023-04-09T04:17:24.837Z,32.05
2023-04-09T04:19:53.135Z,30.17
2023-04-09T04:22:20.788Z,34.55
2023-04-09T04:24:52.302Z,34.22
2023-04-09T04:27:21.905Z,36.08
2023-04-09T04:29:49.339Z,33.88
2023-04-09T04:32:27.280Z,32.42
2023-04-09T04:34:56.224Z,32.13
2023-04-09T04:37:26.695Z,30.95
2023-04-09T04:39:58.168Z,32.27
2023-04-09T04:42:25.801Z,32.03
2023-04-09T04:44:53.279Z,30.60
2023-04-09T04:47:36.168Z,29.98
2023-04-09T04:50:06.441Z,32.03
2023-04-09T04:52:42.474Z,30.83
2023-04-09T04:55:10.448Z,32.28
2023-04-09T04:57:37.598Z,29.77
2023-04-09T05:00:05.822Z,31.45
2023-04-09T05:02:32.992Z,30.08
2023-04-09T05:05:20.831Z,32.80
2023-04-09T05:07:52.742Z,31.30
2023-04-09T05:10:21.398Z,36.30
2023-04-09T05:12:48.596Z,34.20
2023-04-09T05:15:24.654Z,33.17
2023-04-09T05:17:51.864Z,31.73
2023-04-09T05:20:19.561Z,39.08
2023-04-09T05:22:53.719Z,36.85
2023-04-09T05:25:28.272Z,36.63
2023-04-09T05:27:56.368Z,32.28
2023-04-09T05:30:25.436Z,30.58
2023-04-09T05:32:54.640Z,30.25
2023-04-09T05:35:26.298Z,31.17
2023-04-09T05:37:53.619Z,28.95
2023-04-09T05:40:21.734Z,28.58
2023-04-09T05:42:49.770Z,34.15
2023-04-09T05:45:25.067Z,34.10
2023-04-09T05:47:53.818Z,31.98
2023-04-09T05:50:23.593Z,31.40
2023-04-09T05:52:54.278Z,29.85
2023-04-09T05:55:28.728Z,31.17
2023-04-09T05:58:00.670Z,30.70
2023-04-09T06:00:28.809Z,30.92
2023-04-09T06:02:56.123Z,35.33
2023-04-09T06:05:23.564Z,33.30
2023-04-09T06:07:51.899Z,33.00
2023-04-09T06:10:19.559Z,33.33
2023-04-09T06:12:48.395Z,37.60
2023-04-09T06:15:16.064Z,38.88
2023-04-09T06:17:43.153Z,40.13
2023-04-09T06:20:11.168Z,39.70
2023-04-09T06:22:38.327Z,43.00
2023-04-09T06:25:06.492Z,46.53
2023-04-09T06:27:33.651Z,41.92
2023-04-09T06:30:01.113Z,46.67
2023-04-09T06:32:28.310Z,44.90
2023-04-09T06:34:55.814Z,47.67
2023-04-09T06:37:22.817Z,50.03
2023-04-09T06:40:00.632Z,50.03
2023-04-09T06:42:28.625Z,53.40
2023-04-09T06:45:08.435Z,51.85
2023-04-09T06:47:36.253Z,49.90
2023-04-09T06:50:04.611Z,49.08
2023-04-09T06:52:31.707Z,51.08
2023-04-09T06:54:59.094Z,56.45
2023-04-09T06:57:27.229Z,52.53
2023-04-09T06:59:54.605Z,51.70
2023-04-09T07:02:22.000Z,52.70
2023-04-09T07:04:49.718Z,50.75
2023-04-09T07:07:17.054Z,53.55
2023-04-09T07:09:45.398Z,49.20
2023-04-09T07:12:12.455Z,53.63
2023-04-09T07:14:39.954Z,45.83
2023-04-09T07:17:07.339Z,46.08
2023-04-09T07:19:34.595Z,45.55
2023-04-09T07:22:01.813Z,44.45
2023-04-09T07:24:29.171Z,43.25
2023-04-09T07:26:56.458Z,42.13
2023-04-09T07:29:23.805Z,44.67
2023-04-09T07:31:51.177Z,40.97
2023-04-09T07:34:18.512Z,42.40
2023-04-09T07:36:45.670Z,37.67
2023-04-09T07:39:13.012Z,39.90
2023-04-09T07:41:40.624Z,38.08
2023-04-09T07:44:08.497Z,36.63
2023-04-09T07:46:35.968Z,36.20
2023-04-09T07:49:03.725Z,34.67
2023-04-09T07:51:31.226Z,30.20
2023-04-09T07:53:58.691Z,30.95
2023-04-09T07:56:25.861Z,32.35
2023-04-09T07:58:53.482Z,28.85
2023-04-09T08:01:24.592Z,29.80
2023-04-09T08:03:52.259Z,28.08
2023-04-09T08:06:19.688Z,24.23
2023-04-09T08:08:47.050Z,29.23
2023-04-09T08:11:14.125Z,25.75
2023-04-09T08:13:41.667Z,23.92
2023-04-09T08:16:08.837Z,27.73
2023-04-09T08:18:36.188Z,26.55
2023-04-09T08:21:05.621Z,22.40
2023-04-09T08:23:33.183Z,20.33
2023-04-09T08:26:00.299Z,23.27
2023-04-09T08:28:27.709Z,22.63
2023-04-09T08:30:54.931Z,21.58
2023-04-09T08:33:22.493Z,22.40
2023-04-09T08:35:49.728Z,22.35
2023-04-09T08:38:17.139Z,22.30
2023-04-09T08:40:44.247Z,19.85
2023-04-09T08:43:19.291Z,22.60
2023-04-09T08:45:47.371Z,21.35
2023-04-09T08:48:17.015Z,19.27
2023-04-09T08:50:46.363Z,19.70
2023-04-09T08:53:15.535Z,20.33
2023-04-09T08:55:46.570Z,19.42
2023-04-09T08:58:14.491Z,20.13
2023-04-09T09:00:41.508Z,18.77
2023-04-09T09:03:15.158Z,18.60
2023-04-09T09:05:46.448Z,24.20
2023-04-09T09:08:26.732Z,20.95
2023-04-09T09:10:53.891Z,19.00
2023-04-09T09:13:28.537Z,20.58
2023-04-09T09:16:14.354Z,19.83
2023-04-09T09:18:45.286Z,19.83
2023-04-09T09:21:15.664Z,16.42
2023-04-09T09:23:43.546Z,16.27
2023-04-09T09:26:20.608Z,15.98
2023-04-09T09:28:49.638Z,16.00
2023-04-09T09:31:20.366Z,13.65
2023-04-09T09:33:48.533Z,13.75
2023-04-09T09:36:23.175Z,13.15
2023-04-09T09:38:57.159Z,14.50
2023-04-09T09:41:25.899Z,12.35
2023-04-09T09:43:53.144Z,12.80
2023-04-09T09:46:22.589Z,14.20
2023-04-09T09:48:50.053Z,12.05
2023-04-09T09:51:19.583Z,12.10
2023-04-09T09:53:51.915Z,12.27
2023-04-09T09:56:32.322Z,13.18
2023-04-09T09:59:23.817Z,11.85
2023-04-09T10:02:02.298Z,13.43
2023-04-09T10:04:35.197Z,10.15
2023-04-09T10:07:07.280Z,12.30
2023-04-09T10:09:52.015Z,12.05
2023-04-09T10:12:23.852Z,12.95
2023-04-09T10:14:56.341Z,13.10
2023-04-09T10:17:23.880Z,13.40
2023-04-09T10:20:19.757Z,12.13
2023-04-09T10:22:51.709Z,11.70
2023-04-09T10:25:19.419Z,12.77
2023-04-09T10:27:59.985Z,12.15
2023-04-09T10:30:34.821Z,11.68
2023-04-09T10:33:16.597Z,12.63
2023-04-09T10:35:47.188Z,11.87
2023-04-09T10:38:15.588Z,12.38
2023-04-09T10:40:49.627Z,12.13
2023-04-09T10:43:22.122Z,13.40
2023-04-09T10:45:54.411Z,13.00
2023-04-09T10:48:26.086Z,13.45
2023-04-09T10:50:53.154Z,13.57
2023-04-09T10:53:26.142Z,13.27
2023-04-09T10:55:56.192Z,13.20
2023-04-09T10:58:23.533Z,13.85
2023-04-09T11:00:51.641Z,12.40
2023-04-09T11:03:32.768Z,12.68
2023-04-09T11:06:09.072Z,14.07
2023-04-09T11:08:38.629Z,12.60
2023-04-09T11:11:06.392Z,13.40
2023-04-09T11:13:34.491Z,11.70
2023-04-09T11:16:06.545Z,12.07
2023-04-09T11:18:36.965Z,13.52
2023-04-09T11:21:04.498Z,11.38
2023-04-09T11:23:33.283Z,12.27
2023-04-09T11:26:02.118Z,11.38
2023-04-09T11:28:29.469Z,10.73
2023-04-09T11:30:56.591Z,11.45
2023-04-09T11:33:32.117Z,11.70
2023-04-09T11:35:59.417Z,11.80
2023-04-09T11:38:26.849Z,11.77
2023-04-09T11:40:58.094Z,13.20
2023-04-09T11:43:25.918Z,11.77
2023-04-09T11:45:53.307Z,12.10
2023-04-09T11:48:23.347Z,13.13
2023-04-09T11:50:51.285Z,12.52
2023-04-09T11:53:24.449Z,12.95
2023-04-09T11:55:53.443Z,12.35
2023-04-09T11:58:25.595Z,12.88
2023-04-09T12:00:55.424Z,13.07
2023-04-09T12:03:33.416Z,18.33
2023-04-09T12:06:03.368Z,12.02
2023-04-09T12:08:31.777Z,14.73
2023-04-09T12:11:16.126Z,13.57
2023-04-09T12:13:45.591Z,15.80
2023-04-09T12:16:14.067Z,13.52
2023-04-09T12:18:41.809Z,11.93
2023-04-09T12:21:09.012Z,12.52
2023-04-09T12:23:36.476Z,13.55
2023-04-09T12:26:04.203Z,12.43
2023-04-09T12:28:31.504Z,13.98
2023-04-09T12:30:59.499Z,12.57
2023-04-09T12:33:27.289Z,10.95
2023-04-09T12:35:54.371Z,13.60
2023-04-09T12:38:21.705Z,12.15
2023-04-09T12:40:48.827Z,12.00
2023-04-09T12:43:16.543Z,12.45
2023-04-09T12:45:43.677Z,11.90
2023-04-09T12:48:11.715Z,11.13
2023-04-09T12:50:39.052Z,11.60
2023-04-09T12:53:06.515Z,11.15
2023-04-09T12:55:33.774Z,10.65
2023-04-09T12:58:02.483Z,12.73
2023-04-09T13:00:31.091Z,10.65
2023-04-09T13:02:58.884Z,11.13
2023-04-09T13:05:26.148Z,11.40
2023-04-09T13:07:53.816Z,10.77
2023-04-09T13:10:20.946Z,10.50
2023-04-09T13:12:48.437Z,11.25
2023-04-09T13:15:15.569Z,11.02
2023-04-09T13:17:43.129Z,12.15
2023-04-09T13:20:10.599Z,11.98
2023-04-09T13:22:38.034Z,11.45
2023-04-09T13:25:05.775Z,10.93
2023-04-09T13:27:33.274Z,12.20
2023-04-09T13:30:00.336Z,12.63
2023-04-09T13:32:27.809Z,11.32
2023-04-09T13:34:55.712Z,13.88
2023-04-09T13:37:23.286Z,11.98
2023-04-09T13:39:51.355Z,11.88
2023-04-09T13:42:19.040Z,11.40
2023-04-09T13:44:46.606Z,11.75
2023-04-09T13:47:16.232Z,10.48
2023-04-09T13:49:43.983Z,10.40
2023-04-09T13:52:13.462Z,12.63
2023-04-09T13:54:40.889Z,11.15
2023-04-09T13:57:08.392Z,11.10
2023-04-09T13:59:36.055Z,10.20
2023-04-09T14:02:04.071Z,10.20
2023-04-09T14:04:31.522Z,11.43
2023-04-09T14:06:59.024Z,11.23
2023-04-09T14:09:26.451Z,11.45
2023-04-09T14:11:55.084Z,11.40
2023-04-09T14:14:22.261Z,11.00
2023-04-09T14:16:50.412Z,10.65
2023-04-09T14:19:17.777Z,10.25
2023-04-09T14:21:45.269Z,11.38
2023-04-09T14:24:12.418Z,12.02
2023-04-09T14:26:39.735Z,10.38
2023-04-09T14:29:06.832Z,11.02
2023-04-09T14:31:34.208Z,10.65
2023-04-09T14:34:01.336Z,12.98
2023-04-09T14:36:28.648Z,11.40
2023-04-09T14:38:57.851Z,11.48
2023-04-09T14:41:26.165Z,12.00
2023-04-09T14:43:53.286Z,12.02
2023-04-09T14:46:22.116Z,11.75
2023-04-09T14:48:49.349Z,10.52
2023-04-09T14:51:16.692Z,10.98
2023-04-09T14:53:43.844Z,10.43
2023-04-09T14:56:11.217Z,11.43
2023-04-09T14:58:38.375Z,11.68
2023-04-09T15:01:06.327Z,10.82
2023-04-09T15:03:33.572Z,11.02
2023-04-09T15:06:01.327Z,11.07
2023-04-09T15:08:28.556Z,11.85
2023-04-09T15:10:55.910Z,10.55
2023-04-09T15:13:23.995Z,11.35
2023-04-09T15:15:51.476Z,13.15
2023-04-09T15:18:19.981Z,11.88
2023-04-09T15:20:49.080Z,11.85
2023-04-09T15:23:16.283Z,11.38
2023-04-09T15:25:43.747Z,11.95
2023-04-09T15:28:10.914Z,11.70
2023-04-09T15:30:38.417Z,10.93
2023-04-09T15:33:06.191Z,12.75
2023-04-09T15:35:35.308Z,10.90
2023-04-09T15:38:02.472Z,10.35
2023-04-09T15:40:31.018Z,13.52
2023-04-09T15:42:58.192Z,12.77
2023-04-09T15:45:26.904Z,11.70
2023-04-09T15:47:54.461Z,11.57
2023-04-09T15:50:21.938Z,10.88
2023-04-09T15:52:49.106Z,11.65
2023-04-09T15:55:16.723Z,12.05
2023-04-09T15:57:46.782Z,11.60
2023-04-09T16:00:15.587Z,10.93
2023-04-09T16:02:42.743Z,10.27
2023-04-09T16:05:10.571Z,10.45
2023-04-09T16:07:39.347Z,9.63
2023-04-09T16:10:07.732Z,9.23
2023-04-09T16:12:34.754Z,10.43
2023-04-09T16:15:02.851Z,9.43
2023-04-09T16:17:30.838Z,10.00
2023-04-09T16:19:58.286Z,10.63
2023-04-09T16:22:25.582Z,10.43
2023-04-09T16:24:52.894Z,11.05
2023-04-09T16:27:20.348Z,9.43
2023-04-09T16:29:48.211Z,11.77
2023-04-09T16:32:15.431Z,10.52
2023-04-09T16:34:43.003Z,10.00
2023-04-09T16:37:10.233Z,11.10
2023-04-09T16:39:37.737Z,10.93
2023-04-09T16:42:04.959Z,9.50
2023-04-09T16:44:32.322Z,10.68
2023-04-09T16:46:59.554Z,10.52
2023-04-09T16:49:27.015Z,10.88
2023-04-09T16:51:55.060Z,11.02
2023-04-09T16:54:22.572Z,10.30
2023-04-09T16:56:49.760Z,11.93
2023-04-09T16:59:21.080Z,11.07
2023-04-09T17:01:49.162Z,10.63
2023-04-09T17:04:16.979Z,11.82
2023-04-09T17:06:44.177Z,9.93
2023-04-09T17:09:11.671Z,10.27
2023-04-09T17:11:38.961Z,10.30
2023-04-09T17:14:06.516Z,10.50
2023-04-09T17:16:33.909Z,9.98
2023-04-09T17:19:03.998Z,10.55
2023-04-09T17:21:31.341Z,10.98
2023-04-09T17:23:59.639Z,10.82
2023-04-09T17:26:26.854Z,12.02
2023-04-09T17:28:54.749Z,10.32
2023-04-09T17:31:24.087Z,10.68
2023-04-09T17:33:52.292Z,11.63
2023-04-09T17:36:21.086Z,12.43
2023-04-09T17:38:49.944Z,12.80
2023-04-09T17:41:17.361Z,12.65
2023-04-09T17:43:44.690Z,12.68
2023-04-09T17:46:12.339Z,13.00
2023-04-09T17:48:40.842Z,15.30
2023-04-09T17:51:07.993Z,13.63
2023-04-09T17:53:35.315Z,15.25
2023-04-09T17:56:03.888Z,13.05
2023-04-09T17:58:31.623Z,13.95
2023-04-09T18:00:59.768Z,14.25
2023-04-09T18:03:27.598Z,14.85
2023-04-09T18:05:54.946Z,12.93
2023-04-09T18:08:22.500Z,14.65
2023-04-09T18:11:08.862Z,13.45
2023-04-09T18:13:39.554Z,14.00
2023-04-09T18:16:12.940Z,13.20
2023-04-09T18:18:41.344Z,14.25
2023-04-09T18:21:08.598Z,13.05
2023-04-09T18:23:36.247Z,12.60
2023-04-09T18:26:03.583Z,12.60
2023-04-09T18:28:31.203Z,13.75
2023-04-09T18:30:58.863Z,12.25
2023-04-09T18:33:27.026Z,12.75
2023-04-09T18:35:54.302Z,14.77
2023-04-09T18:38:21.845Z,13.27
2023-04-09T18:40:49.196Z,13.57
2023-04-09T18:43:16.607Z,11.85
2023-04-09T18:45:43.790Z,13.43
2023-04-09T18:48:11.221Z,12.32
2023-04-09T18:50:38.302Z,12.02
2023-04-09T18:53:06.604Z,12.80
2023-04-09T18:55:37.725Z,13.73
2023-04-09T18:58:12.646Z,13.70
2023-04-09T19:00:40.395Z,13.75
2023-04-09T19:03:11.181Z,15.20
2023-04-09T19:05:39.925Z,18.40
2023-04-09T19:08:07.767Z,16.67
2023-04-09T19:10:36.016Z,16.50
2023-04-09T19:13:03.751Z,19.73
2023-04-09T19:15:31.065Z,20.85
2023-04-09T19:17:58.464Z,20.67
2023-04-09T19:20:25.636Z,18.42
2023-04-09T19:22:54.504Z,18.88
2023-04-09T19:25:22.755Z,16.40
2023-04-09T19:27:50.680Z,17.40
2023-04-09T19:30:17.973Z,16.80
2023-04-09T19:32:45.917Z,17.17
2023-04-09T19:35:13.264Z,18.60
2023-04-09T19:37:40.823Z,18.05
2023-04-09T19:40:08.905Z,18.25
2023-04-09T19:42:36.709Z,17.80
2023-04-09T19:45:04.076Z,18.67
2023-04-09T19:47:32.176Z,18.13
2023-04-09T19:49:59.400Z,19.17
2023-04-09T19:52:27.031Z,20.00
2023-04-09T19:54:56.339Z,20.05
2023-04-09T19:57:23.973Z,19.15
2023-04-09T19:59:52.187Z,24.55
2023-04-09T20:02:19.892Z,19.02
2023-04-09T20:04:47.621Z,20.77
2023-04-09T20:07:15.652Z,19.73
2023-04-09T20:09:43.528Z,22.42
2023-04-09T20:12:11.274Z,19.30
2023-04-09T20:14:39.321Z,19.08
2023-04-09T20:17:08.740Z,18.52
2023-04-09T20:19:36.257Z,20.20
2023-04-09T20:22:03.748Z,18.23
2023-04-09T20:24:31.001Z,18.65
2023-04-09T20:26:59.658Z,18.90
2023-04-09T20:29:26.968Z,18.23
2023-04-09T20:31:54.438Z,19.33
2023-04-09T20:34:26.557Z,18.40
2023-04-09T20:36:55.386Z,17.92
2023-04-09T20:39:24.881Z,20.95
2023-04-09T20:41:53.359Z,18.60
2023-04-09T20:44:20.485Z,22.27
2023-04-09T20:46:48.002Z,21.08
2023-04-09T20:49:15.096Z,20.45
2023-04-09T20:51:42.481Z,19.77
2023-04-09T20:54:09.807Z,20.67
2023-04-09T20:56:37.273Z,22.33
2023-04-09T20:59:04.326Z,22.42
2023-04-09T21:01:32.212Z,19.95
2023-04-09T21:03:59.541Z,21.48
2023-04-09T21:06:27.108Z,20.83
2023-04-09T21:08:55.704Z,22.08
2023-04-09T21:11:23.614Z,21.15
2023-04-09T21:13:54.974Z,19.77
2023-04-09T21:16:23.254Z,21.55
2023-04-09T21:18:50.600Z,21.55
2023-04-09T21:21:18.540Z,20.52
2023-04-09T21:23:45.880Z,21.67
2023-04-09T21:26:14.110Z,24.05
2023-04-09T21:28:41.353Z,20.92
2023-04-09T21:31:11.251Z,20.52
2023-04-09T21:33:39.227Z,23.52
2023-04-09T21:36:08.030Z,25.42
2023-04-09T21:38:35.450Z,25.55
2023-04-09T21:41:03.264Z,24.77
2023-04-09T21:43:30.428Z,28.63
2023-04-09T21:45:57.981Z,24.15
2023-04-09T21:48:26.464Z,31.25
2023-04-09T21:50:53.923Z,27.17
2023-04-09T21:53:21.172Z,26.08
2023-04-09T21:55:48.532Z,24.13
2023-04-09T21:58:15.912Z,23.75
2023-04-09T22:00:43.209Z,24.90
2023-04-09T22:03:11.000Z,25.45
2023-04-09T22:05:38.656Z,25.77
2023-04-09T22:08:06.149Z,26.00
2023-04-09T22:10:33.738Z,25.10
2023-04-09T22:13:01.309Z,25.48
2023-04-09T22:15:28.984Z,26.52
2023-04-09T22:17:56.304Z,26.35
2023-04-09T22:20:26.158Z,27.70
2023-04-09T22:22:56.424Z,28.58
2023-04-09T22:25:23.929Z,26.52
2023-04-09T22:27:54.319Z,25.00
2023-04-09T22:30:23.712Z,25.38
2023-04-09T22:32:51.496Z,25.95
2023-04-09T22:35:19.125Z,26.35
2023-04-09T22:37:46.900Z,27.08
2023-04-09T22:40:15.891Z,25.10
2023-04-09T22:42:46.712Z,26.83
2023-04-09T22:45:14.740Z,26.45
2023-04-09T22:47:41.915Z,26.00
2023-04-09T22:50:11.427Z,26.85
2023-04-09T22:52:38.438Z,25.60
2023-04-09T22:55:09.879Z,28.10
2023-04-09T22:57:38.321Z,26.00
2023-04-09T23:00:08.400Z,25.20
2023-04-09T23:02:35.613Z,26.42
2023-04-09T23:05:03.562Z,29.88
2023-04-09T23:07:31.028Z,24.48
2023-04-09T23:09:58.391Z,24.65
2023-04-09T23:12:25.789Z,23.88
2023-04-09T23:14:53.976Z,23.23
2023-04-09T23:17:22.607Z,23.75
2023-04-09T23:19:52.327Z,22.38
2023-04-09T23:22:19.486Z,22.83
2023-04-09T23:24:46.761Z,24.27
2023-04-09T23:27:14.181Z,25.33
2023-04-09T23:29:41.443Z,27.80
2023-04-09T23:32:08.511Z,29.73
2023-04-09T23:34:35.944Z,28.67
2023-04-09T23:37:03.052Z,26.08
2023-04-09T23:39:30.367Z,27.52
2023-04-09T23:41:57.920Z,26.73
2023-04-09T23:44:25.264Z,27.73
2023-04-09T23:46:53.163Z,27.60
2023-04-09T23:49:20.667Z,24.70
2023-04-09T23:51:47.758Z,25.42
2023-04-09T23:54:15.072Z,24.60
2023-04-09T23:56:42.336Z,25.40
2023-04-09T23:59:09.936Z,22.63
